sensor_id;sensor_type;location;lat;lon;timestamp;pressure;altitude;pressure_sealevel;temperature;humidity
61119;BME280;51448;51.660;5.824;2023-08-30T00:01:53;100790.06;;;14.27;98.00
61119;BME280;51448;51.660;5.824;2023-08-30T00:04:20;100784.03;;;14.24;97.97
61119;BME280;51448;51.660;5.824;2023-08-30T00:06:49;100788.53;;;14.22;97.88
61119;BME280;51448;51.660;5.824;2023-08-30T00:09:17;100780.72;;;14.19;98.13
61119;BME280;51448;51.660;5.824;2023-08-30T00:11:45;100771.16;;;14.16;98.19
61119;BME280;51448;51.660;5.824;2023-08-30T00:14:13;100775.59;;;14.16;98.08
61119;BME280;51448;51.660;5.824;2023-08-30T00:16:40;100775.69;;;14.13;98.16
61119;BME280;51448;51.660;5.824;2023-08-30T00:19:08;100771.41;;;14.10;97.97
61119;BME280;51448;51.660;5.824;2023-08-30T00:21:35;100763.53;;;14.08;97.97
61119;BME280;51448;51.660;5.824;2023-08-30T00:24:03;100772.53;;;14.04;97.96
61119;BME280;51448;51.660;5.824;2023-08-30T00:26:31;100764.69;;;14.03;98.33
61119;BME280;51448;51.660;5.824;2023-08-30T00:29:00;100763.97;;;13.99;98.25
61119;BME280;51448;51.660;5.824;2023-08-30T00:31:29;100762.31;;;13.97;98.33
61119;BME280;51448;51.660;5.824;2023-08-30T00:33:57;100762.44;;;13.94;98.38
61119;BME280;51448;51.660;5.824;2023-08-30T00:36:24;100763.44;;;13.91;98.02
61119;BME280;51448;51.660;5.824;2023-08-30T00:38:52;100760.91;;;13.88;98.09
61119;BME280;51448;51.660;5.824;2023-08-30T00:41:19;100754.91;;;13.84;98.00
61119;BME280;51448;51.660;5.824;2023-08-30T00:43:47;100759.47;;;13.81;98.09
61119;BME280;51448;51.660;5.824;2023-08-30T00:46:15;100752.59;;;13.77;98.13
61119;BME280;51448;51.660;5.824;2023-08-30T00:48:44;100753.59;;;13.74;98.19
61119;BME280;51448;51.660;5.824;2023-08-30T00:51:12;100753.63;;;13.73;98.32
61119;BME280;51448;51.660;5.824;2023-08-30T00:53:40;100752.00;;;13.70;98.53
61119;BME280;51448;51.660;5.824;2023-08-30T00:56:07;100751.25;;;13.66;98.34
61119;BME280;51448;51.660;5.824;2023-08-30T00:58:35;100748.72;;;13.63;98.11
61119;BME280;51448;51.660;5.824;2023-08-30T01:01:06;100749.66;;;13.62;98.42
61119;BME280;51448;51.660;5.824;2023-08-30T01:03:36;100742.78;;;13.58;98.22
61119;BME280;51448;51.660;5.824;2023-08-30T01:06:05;100747.22;;;13.58;98.46
61119;BME280;51448;51.660;5.824;2023-08-30T01:08:34;100745.53;;;13.55;98.87
61119;BME280;51448;51.660;5.824;2023-08-30T01:11:30;100751.81;;;13.53;98.62
61119;BME280;51448;51.660;5.824;2023-08-30T01:14:09;100743.16;;;13.49;98.82
61119;BME280;51448;51.660;5.824;2023-08-30T01:16:41;100740.59;;;13.47;98.43
61119;BME280;51448;51.660;5.824;2023-08-30T01:22:37;100732.00;;;13.42;98.75
61119;BME280;51448;51.660;5.824;2023-08-30T01:28:13;100733.19;;;13.35;98.92
61119;BME280;51448;51.660;5.824;2023-08-30T01:30:46;100728.94;;;13.31;98.72
61119;BME280;51448;51.660;5.824;2023-08-30T01:33:16;100726.38;;;13.30;99.05
61119;BME280;51448;51.660;5.824;2023-08-30T01:35:46;100732.59;;;13.27;98.66
61119;BME280;51448;51.660;5.824;2023-08-30T01:38:14;100733.56;;;13.24;98.45
61119;BME280;51448;51.660;5.824;2023-08-30T01:40:43;100728.47;;;13.20;98.80
61119;BME280;51448;51.660;5.824;2023-08-30T01:43:14;100733.81;;;13.18;98.76
61119;BME280;51448;51.660;5.824;2023-08-30T01:45:44;100729.72;;;13.11;99.27
61119;BME280;51448;51.660;5.824;2023-08-30T01:48:15;100732.41;;;13.09;98.96
61119;BME280;51448;51.660;5.824;2023-08-30T01:50:45;100734.31;;;13.06;98.97
61119;BME280;51448;51.660;5.824;2023-08-30T01:53:14;100722.16;;;13.02;99.15
61119;BME280;51448;51.660;5.824;2023-08-30T01:55:42;100724.94;;;12.99;99.50
61119;BME280;51448;51.660;5.824;2023-08-30T01:58:11;100728.56;;;12.96;99.08
61119;BME280;51448;51.660;5.824;2023-08-30T02:00:39;100728.66;;;12.93;99.45
61119;BME280;51448;51.660;5.824;2023-08-30T02:03:09;100730.56;;;12.89;99.14
61119;BME280;51448;51.660;5.824;2023-08-30T02:05:48;100729.84;;;12.86;99.65
61119;BME280;51448;51.660;5.824;2023-08-30T02:08:26;100730.00;;;12.81;99.36
61119;BME280;51448;51.660;5.824;2023-08-30T02:11:10;100729.28;;;12.78;99.64
61119;BME280;51448;51.660;5.824;2023-08-30T02:13:42;100728.59;;;12.73;99.51
61119;BME280;51448;51.660;5.824;2023-08-30T02:16:13;100725.09;;;12.72;99.90
61119;BME280;51448;51.660;5.824;2023-08-30T02:18:44;100720.84;;;12.68;99.81
61119;BME280;51448;51.660;5.824;2023-08-30T02:21:13;100718.31;;;12.65;100.00
61119;BME280;51448;51.660;5.824;2023-08-30T02:23:40;100719.31;;;12.62;99.87
61119;BME280;51448;51.660;5.824;2023-08-30T02:26:08;100727.28;;;12.61;99.91
61119;BME280;51448;51.660;5.824;2023-08-30T02:28:36;100718.56;;;12.59;100.00
61119;BME280;51448;51.660;5.824;2023-08-30T02:31:06;100718.69;;;12.56;100.00
61119;BME280;51448;51.660;5.824;2023-08-30T02:33:34;100717.88;;;12.54;100.00
61119;BME280;51448;51.660;5.824;2023-08-30T02:36:01;100705.59;;;12.53;100.00
61119;BME280;51448;51.660;5.824;2023-08-30T02:38:30;100700.41;;;12.51;100.00
61119;BME280;51448;51.660;5.824;2023-08-30T02:40:58;100699.59;;;12.49;100.00
61119;BME280;51448;51.660;5.824;2023-08-30T02:43:25;100704.06;;;12.47;100.00
61119;BME280;51448;51.660;5.824;2023-08-30T02:45:53;100703.28;;;12.45;100.00
61119;BME280;51448;51.660;5.824;2023-08-30T02:48:20;100702.47;;;12.43;100.00
61119;BME280;51448;51.660;5.824;2023-08-30T02:50:49;100698.22;;;12.39;100.00
61119;BME280;51448;51.660;5.824;2023-08-30T02:53:17;100693.00;;;12.37;100.00
61119;BME280;51448;51.660;5.824;2023-08-30T02:55:46;100689.56;;;12.35;100.00
61119;BME280;51448;51.660;5.824;2023-08-30T02:58:15;100696.69;;;12.33;100.00
61119;BME280;51448;51.660;5.824;2023-08-30T03:00:43;100693.25;;;12.31;100.00
61119;BME280;51448;51.660;5.824;2023-08-30T03:03:10;100685.38;;;12.30;100.00
61119;BME280;51448;51.660;5.824;2023-08-30T03:05:38;100683.72;;;12.27;100.00
61119;BME280;51448;51.660;5.824;2023-08-30T03:08:05;100683.72;;;12.27;100.00
61119;BME280;51448;51.660;5.824;2023-08-30T03:10:34;100682.91;;;12.25;100.00
61119;BME280;51448;51.660;5.824;2023-08-30T03:13:01;100682.06;;;12.24;100.00
61119;BME280;51448;51.660;5.824;2023-08-30T03:15:33;100688.19;;;12.25;100.00
61119;BME280;51448;51.660;5.824;2023-08-30T03:18:03;100679.47;;;12.23;100.00
61119;BME280;51448;51.660;5.824;2023-08-30T03:20:31;100685.59;;;12.23;100.00
61119;BME280;51448;51.660;5.824;2023-08-30T03:22:59;100679.47;;;12.23;100.00
61119;BME280;51448;51.660;5.824;2023-08-30T03:25:30;100678.44;;;12.27;100.00
61119;BME280;51448;51.660;5.824;2023-08-30T03:27:59;100672.31;;;12.26;100.00
61119;BME280;51448;51.660;5.824;2023-08-30T03:30:27;100660.03;;;12.25;100.00
61119;BME280;51448;51.660;5.824;2023-08-30T03:32:57;100657.34;;;12.27;100.00
61119;BME280;51448;51.660;5.824;2023-08-30T03:35:24;100652.03;;;12.28;100.00
61119;BME280;51448;51.660;5.824;2023-08-30T03:37:52;100646.66;;;12.30;100.00
61119;BME280;51448;51.660;5.824;2023-08-30T03:40:19;100644.78;;;12.34;100.00
61119;BME280;51448;51.660;5.824;2023-08-30T03:42:47;100643.88;;;12.35;100.00
61119;BME280;51448;51.660;5.824;2023-08-30T03:45:15;100627.06;;;12.37;100.00
61119;BME280;51448;51.660;5.824;2023-08-30T03:47:42;100629.66;;;12.39;100.00
61119;BME280;51448;51.660;5.824;2023-08-30T03:50:11;100625.19;;;12.41;100.00
61119;BME280;51448;51.660;5.824;2023-08-30T03:52:40;100622.47;;;12.42;100.00
61119;BME280;51448;51.660;5.824;2023-08-30T03:55:07;100625.06;;;12.44;100.00
61119;BME280;51448;51.660;5.824;2023-08-30T03:57:35;100624.16;;;12.45;100.00
61119;BME280;51448;51.660;5.824;2023-08-30T04:00:03;100615.34;;;12.44;100.00
61119;BME280;51448;51.660;5.824;2023-08-30T04:02:41;100623.34;;;12.43;100.00
61119;BME280;51448;51.660;5.824;2023-08-30T04:05:09;100608.44;;;12.42;100.00
61119;BME280;51448;51.660;5.824;2023-08-30T04:07:38;100607.56;;;12.41;100.00
61119;BME280;51448;51.660;5.824;2023-08-30T04:10:06;100610.22;;;12.41;100.00
61119;BME280;51448;51.660;5.824;2023-08-30T04:12:35;100599.72;;;12.40;100.00
61119;BME280;51448;51.660;5.824;2023-08-30T04:15:02;100592.66;;;12.40;100.00
61119;BME280;51448;51.660;5.824;2023-08-30T04:17:30;100586.53;;;12.40;100.00
61119;BME280;51448;51.660;5.824;2023-08-30T04:19:59;100580.41;;;12.39;100.00
61119;BME280;51448;51.660;5.824;2023-08-30T04:22:32;100573.38;;;12.38;100.00
61119;BME280;51448;51.660;5.824;2023-08-30T04:25:03;100573.38;;;12.38;100.00
61119;BME280;51448;51.660;5.824;2023-08-30T04:27:31;100566.41;;;12.37;100.00
61119;BME280;51448;51.660;5.824;2023-08-30T04:29:59;100569.06;;;12.37;100.00
61119;BME280;51448;51.660;5.824;2023-08-30T04:32:27;100564.69;;;12.36;100.00
61119;BME280;51448;51.660;5.824;2023-08-30T04:34:54;100573.53;;;12.35;100.00
61119;BME280;51448;51.660;5.824;2023-08-30T04:37:22;100578.81;;;12.35;100.00
61119;BME280;51448;51.660;5.824;2023-08-30T04:39:49;100577.94;;;12.35;100.00
61119;BME280;51448;51.660;5.824;2023-08-30T04:42:17;100573.59;;;12.34;100.00
61119;BME280;51448;51.660;5.824;2023-08-30T04:44:45;100566.53;;;12.34;100.00
61119;BME280;51448;51.660;5.824;2023-08-30T04:47:12;100553.34;;;12.34;100.00
61119;BME280;51448;51.660;5.824;2023-08-30T04:49:40;100569.94;;;12.36;100.00
61119;BME280;51448;51.660;5.824;2023-08-30T04:52:08;100569.09;;;12.36;100.00
61119;BME280;51448;51.660;5.824;2023-08-30T04:54:36;100566.41;;;12.37;100.00
61119;BME280;51448;51.660;5.824;2023-08-30T04:57:04;100565.44;;;12.40;100.00
61119;BME280;51448;51.660;5.824;2023-08-30T04:59:33;100563.59;;;12.42;100.00
61119;BME280;51448;51.660;5.824;2023-08-30T05:02:01;100564.44;;;12.42;100.00
61119;BME280;51448;51.660;5.824;2023-08-30T05:04:31;100559.91;;;12.46;100.00
61119;BME280;51448;51.660;5.824;2023-08-30T05:06:59;100565.06;;;12.49;100.00
61119;BME280;51448;51.660;5.824;2023-08-30T05:09:27;100569.34;;;12.52;100.00
61119;BME280;51448;51.660;5.824;2023-08-30T05:11:55;100571.06;;;12.53;100.00
61119;BME280;51448;51.660;5.824;2023-08-30T05:14:22;100566.59;;;12.55;100.00
61119;BME280;51448;51.660;5.824;2023-08-30T05:16:50;100570.81;;;12.59;100.00
61119;BME280;51448;51.660;5.824;2023-08-30T05:19:19;100562.78;;;12.62;100.00
61119;BME280;51448;51.660;5.824;2023-08-30T05:21:48;100561.75;;;12.66;100.00
61119;BME280;51448;51.660;5.824;2023-08-30T05:24:22;100554.47;;;12.71;100.00
61119;BME280;51448;51.660;5.824;2023-08-30T05:26:49;100549.09;;;12.74;100.00
61119;BME280;51448;51.660;5.824;2023-08-30T05:29:18;100542.81;;;12.77;100.00
61119;BME280;51448;51.660;5.824;2023-08-30T05:31:46;100547.00;;;12.82;100.00
61119;BME280;51448;51.660;5.824;2023-08-30T05:34:33;100532.84;;;12.83;100.00
61119;BME280;51448;51.660;5.824;2023-08-30T05:37:24;100527.47;;;12.86;100.00
61119;BME280;51448;51.660;5.824;2023-08-30T05:39:57;100530.75;;;12.92;100.00
61119;BME280;51448;51.660;5.824;2023-08-30T05:42:25;100525.22;;;12.98;100.00
61119;BME280;51448;51.660;5.824;2023-08-30T05:44:53;100521.47;;;13.03;100.00
61119;BME280;51448;51.660;5.824;2023-08-30T05:47:21;100528.38;;;13.06;100.00
61119;BME280;51448;51.660;5.824;2023-08-30T05:49:50;100530.84;;;13.11;100.00
61119;BME280;51448;51.660;5.824;2023-08-30T05:52:17;100523.56;;;13.16;100.00
61119;BME280;51448;51.660;5.824;2023-08-30T05:54:45;100527.72;;;13.21;100.00
61119;BME280;51448;51.660;5.824;2023-08-30T05:57:13;100527.44;;;13.27;100.00
61119;BME280;51448;51.660;5.824;2023-08-30T05:59:40;100523.72;;;13.33;100.00
61119;BME280;51448;51.660;5.824;2023-08-30T06:02:08;100525.16;;;13.40;100.00
61119;BME280;51448;51.660;5.824;2023-08-30T06:04:35;100528.38;;;13.47;100.00
61119;BME280;51448;51.660;5.824;2023-08-30T06:07:03;100520.25;;;13.52;100.00
61119;BME280;51448;51.660;5.824;2023-08-30T06:09:31;100516.47;;;13.57;100.00
61119;BME280;51448;51.660;5.824;2023-08-30T06:11:58;100512.75;;;13.61;100.00
61119;BME280;51448;51.660;5.824;2023-08-30T06:14:26;100512.56;;;13.66;100.00
61119;BME280;51448;51.660;5.824;2023-08-30T06:16:54;100503.56;;;13.70;100.00
61119;BME280;51448;51.660;5.824;2023-08-30T06:19:21;100510.31;;;13.76;100.00
61119;BME280;51448;51.660;5.824;2023-08-30T06:21:49;100497.78;;;13.81;100.00
61119;BME280;51448;51.660;5.824;2023-08-30T06:24:16;100504.56;;;13.86;100.00
61119;BME280;51448;51.660;5.824;2023-08-30T06:26:44;100499.97;;;13.90;100.00
61119;BME280;51448;51.660;5.824;2023-08-30T06:29:11;100504.97;;;13.96;100.00
61119;BME280;51448;51.660;5.824;2023-08-30T06:31:39;100492.41;;;14.01;100.00
61119;BME280;51448;51.660;5.824;2023-08-30T06:34:08;100500.81;;;14.09;100.00
61119;BME280;51448;51.660;5.824;2023-08-30T06:36:36;100493.50;;;14.15;100.00
61119;BME280;51448;51.660;5.824;2023-08-30T06:39:04;100498.50;;;14.21;100.00
61119;BME280;51448;51.660;5.824;2023-08-30T06:41:31;100489.47;;;14.25;100.00
61119;BME280;51448;51.660;5.824;2023-08-30T06:43:59;100491.03;;;14.29;100.00
61119;BME280;51448;51.660;5.824;2023-08-30T06:46:26;100486.41;;;14.34;100.00
61119;BME280;51448;51.660;5.824;2023-08-30T06:48:54;100488.75;;;14.40;100.00
61119;BME280;51448;51.660;5.824;2023-08-30T06:51:21;100487.66;;;14.44;100.00
61119;BME280;51448;51.660;5.824;2023-08-30T06:53:50;100492.66;;;14.51;100.00
61119;BME280;51448;51.660;5.824;2023-08-30T06:56:18;100498.59;;;14.56;100.00
61119;BME280;51448;51.660;5.824;2023-08-30T06:58:45;100491.28;;;14.61;100.00
61119;BME280;51448;51.660;5.824;2023-08-30T07:01:13;100495.44;;;14.66;100.00
61119;BME280;51448;51.660;5.824;2023-08-30T07:03:40;100496.09;;;14.70;100.00
61119;BME280;51448;51.660;5.824;2023-08-30T07:06:08;100498.53;;;14.75;100.00
61119;BME280;51448;51.660;5.824;2023-08-30T07:08:36;100493.91;;;14.78;100.00
61119;BME280;51448;51.660;5.824;2023-08-30T07:11:03;100502.56;;;14.82;100.00
61119;BME280;51448;51.660;5.824;2023-08-30T07:13:31;100497.22;;;14.83;100.00
61119;BME280;51448;51.660;5.824;2023-08-30T07:15:58;100511.16;;;14.87;100.00
61119;BME280;51448;51.660;5.824;2023-08-30T07:18:26;100517.13;;;14.91;100.00
61119;BME280;51448;51.660;5.824;2023-08-30T07:20:54;100514.34;;;14.94;100.00
61119;BME280;51448;51.660;5.824;2023-08-30T07:23:21;100520.41;;;14.96;100.00
61119;BME280;51448;51.660;5.824;2023-08-30T07:25:51;100524.94;;;14.94;100.00
61119;BME280;51448;51.660;5.824;2023-08-30T07:28:19;100532.94;;;14.92;100.00
61119;BME280;51448;51.660;5.824;2023-08-30T07:30:46;100525.25;;;14.87;100.00
61119;BME280;51448;51.660;5.824;2023-08-30T07:33:14;100510.38;;;14.85;100.00
61119;BME280;51448;51.660;5.824;2023-08-30T07:35:41;100520.31;;;14.80;100.00
61119;BME280;51448;51.660;5.824;2023-08-30T07:38:09;100502.94;;;14.74;100.00
61119;BME280;51448;51.660;5.824;2023-08-30T07:40:37;100489.19;;;14.67;100.00
61119;BME280;51448;51.660;5.824;2023-08-30T07:43:04;100482.41;;;14.62;100.00
61119;BME280;51448;51.660;5.824;2023-08-30T07:45:32;100479.91;;;14.59;100.00
61119;BME280;51448;51.660;5.824;2023-08-30T07:47:59;100473.03;;;14.55;100.00
61119;BME280;51448;51.660;5.824;2023-08-30T07:50:27;100480.13;;;14.54;100.00
61119;BME280;51448;51.660;5.824;2023-08-30T07:52:54;100471.25;;;14.55;100.00
61119;BME280;51448;51.660;5.824;2023-08-30T07:55:22;100475.69;;;14.55;100.00
61119;BME280;51448;51.660;5.824;2023-08-30T07:57:49;100472.25;;;14.53;100.00
61119;BME280;51448;51.660;5.824;2023-08-30T08:00:17;100470.53;;;14.52;100.00
61119;BME280;51448;51.660;5.824;2023-08-30T08:02:46;100470.63;;;14.50;100.00
61119;BME280;51448;51.660;5.824;2023-08-30T08:05:13;100466.19;;;14.51;100.00
61119;BME280;51448;51.660;5.824;2023-08-30T08:07:42;100463.59;;;14.49;100.00
61119;BME280;51448;51.660;5.824;2023-08-30T08:10:10;100465.41;;;14.48;100.00
61119;BME280;51448;51.660;5.824;2023-08-30T08:12:37;100460.13;;;14.48;100.00
61119;BME280;51448;51.660;5.824;2023-08-30T08:15:06;100462.69;;;14.50;100.00
61119;BME280;51448;51.660;5.824;2023-08-30T08:17:34;100459.03;;;14.53;100.00
61119;BME280;51448;51.660;5.824;2023-08-30T08:20:04;100464.25;;;14.54;100.00
61119;BME280;51448;51.660;5.824;2023-08-30T08:22:33;100450.94;;;14.56;100.00
61119;BME280;51448;51.660;5.824;2023-08-30T08:25:01;100449.09;;;14.58;100.00
61119;BME280;51448;51.660;5.824;2023-08-30T08:27:29;100443.88;;;14.56;100.00
61119;BME280;51448;51.660;5.824;2023-08-30T08:29:57;100442.09;;;14.57;100.00
61119;BME280;51448;51.660;5.824;2023-08-30T08:32:25;100443.78;;;14.58;100.00
61119;BME280;51448;51.660;5.824;2023-08-30T08:34:52;100448.16;;;14.59;100.00
61119;BME280;51448;51.660;5.824;2023-08-30T08:37:20;100439.38;;;14.58;100.00
61119;BME280;51448;51.660;5.824;2023-08-30T08:39:48;100434.94;;;14.59;100.00
61119;BME280;51448;51.660;5.824;2023-08-30T08:42:20;100438.50;;;14.58;100.00
61119;BME280;51448;51.660;5.824;2023-08-30T08:44:50;100435.06;;;14.56;100.00
61119;BME280;51448;51.660;5.824;2023-08-30T08:47:20;100433.31;;;14.56;100.00
61119;BME280;51448;51.660;5.824;2023-08-30T08:49:49;100430.66;;;14.56;100.00
61119;BME280;51448;51.660;5.824;2023-08-30T08:52:18;100427.06;;;14.57;100.00
61119;BME280;51448;51.660;5.824;2023-08-30T08:54:59;100420.91;;;14.57;100.00
61119;BME280;51448;51.660;5.824;2023-08-30T08:57:28;100423.59;;;14.55;100.00
61119;BME280;51448;51.660;5.824;2023-08-30T08:59:59;100434.16;;;14.57;100.00
61119;BME280;51448;51.660;5.824;2023-08-30T09:02:28;100425.38;;;14.56;100.00
61119;BME280;51448;51.660;5.824;2023-08-30T09:04:59;100418.19;;;14.58;100.00
61119;BME280;51448;51.660;5.824;2023-08-30T09:07:27;100414.69;;;14.58;100.00
61119;BME280;51448;51.660;5.824;2023-08-30T09:09:57;100417.31;;;14.58;100.00
61119;BME280;51448;51.660;5.824;2023-08-30T09:12:25;100423.38;;;14.60;100.00
61119;BME280;51448;51.660;5.824;2023-08-30T09:14:56;100420.59;;;14.63;100.00
61119;BME280;51448;51.660;5.824;2023-08-30T09:17:35;100421.38;;;14.65;100.00
61119;BME280;51448;51.660;5.824;2023-08-30T09:20:08;100417.78;;;14.66;100.00
61119;BME280;51448;51.660;5.824;2023-08-30T09:22:40;100411.50;;;14.68;100.00
61119;BME280;51448;51.660;5.824;2023-08-30T09:25:10;100412.28;;;14.71;100.00
61119;BME280;51448;51.660;5.824;2023-08-30T09:27:57;100423.53;;;14.74;100.00
61119;BME280;51448;51.660;5.824;2023-08-30T09:30:26;100418.25;;;14.74;100.00
61119;BME280;51448;51.660;5.824;2023-08-30T09:33:00;100423.41;;;14.77;100.00
61119;BME280;51448;51.660;5.824;2023-08-30T09:35:32;100428.75;;;14.76;100.00
61119;BME280;51448;51.660;5.824;2023-08-30T09:37:59;100414.69;;;14.75;100.00
61119;BME280;51448;51.660;5.824;2023-08-30T09:40:27;100424.16;;;14.79;100.00
61119;BME280;51448;51.660;5.824;2023-08-30T09:42:55;100421.34;;;14.82;100.00
61119;BME280;51448;51.660;5.824;2023-08-30T09:45:39;100410.09;;;14.95;100.00
61119;BME280;51448;51.660;5.824;2023-08-30T09:48:08;100416.31;;;15.11;100.00
61119;BME280;51448;51.660;5.824;2023-08-30T09:50:36;100419.16;;;15.24;100.00
61119;BME280;51448;51.660;5.824;2023-08-30T09:53:08;100418.56;;;15.35;100.00
61119;BME280;51448;51.660;5.824;2023-08-30T09:55:40;100422.50;;;15.43;100.00
61119;BME280;51448;51.660;5.824;2023-08-30T09:58:10;100414.16;;;15.51;100.00
61119;BME280;51448;51.660;5.824;2023-08-30T10:00:42;100413.13;;;15.69;100.00
61119;BME280;51448;51.660;5.824;2023-08-30T10:03:10;100407.16;;;15.82;100.00
61119;BME280;51448;51.660;5.824;2023-08-30T10:05:58;100402.56;;;15.85;100.00
61119;BME280;51448;51.660;5.824;2023-08-30T10:08:29;100403.41;;;15.86;100.00
61119;BME280;51448;51.660;5.824;2023-08-30T10:10:59;100406.13;;;15.84;100.00
61119;BME280;51448;51.660;5.824;2023-08-30T10:13:29;100408.84;;;15.83;100.00
61119;BME280;51448;51.660;5.824;2023-08-30T10:16:00;100403.75;;;15.80;100.00
61119;BME280;51448;51.660;5.824;2023-08-30T10:18:32;100411.97;;;15.75;100.00
61119;BME280;51448;51.660;5.824;2023-08-30T10:21:05;100412.03;;;15.74;100.00
61119;BME280;51448;51.660;5.824;2023-08-30T10:23:39;100399.38;;;15.79;100.00
61119;BME280;51448;51.660;5.824;2023-08-30T10:26:08;100398.59;;;15.93;100.00
61119;BME280;51448;51.660;5.824;2023-08-30T10:28:36;100401.13;;;16.10;100.00
61119;BME280;51448;51.660;5.824;2023-08-30T10:31:06;100398.94;;;16.33;100.00
61119;BME280;51448;51.660;5.824;2023-08-30T10:33:47;100397.25;;;16.46;100.00
61119;BME280;51448;51.660;5.824;2023-08-30T10:36:25;100393.19;;;16.55;100.00
61119;BME280;51448;51.660;5.824;2023-08-30T10:38:54;100385.91;;;16.73;100.00
61119;BME280;51448;51.660;5.824;2023-08-30T10:41:26;100379.72;;;17.02;100.00
61119;BME280;51448;51.660;5.824;2023-08-30T10:43:56;100374.56;;;17.28;100.00
61119;BME280;51448;51.660;5.824;2023-08-30T10:46:29;100380.22;;;17.50;100.00
61119;BME280;51448;51.660;5.824;2023-08-30T10:49:09;100391.63;;;17.80;100.00
61119;BME280;51448;51.660;5.824;2023-08-30T10:51:39;100379.78;;;17.98;100.00
61119;BME280;51448;51.660;5.824;2023-08-30T10:54:11;100382.94;;;18.18;100.00
61119;BME280;51448;51.660;5.824;2023-08-30T10:56:57;100385.63;;;18.30;100.00
61119;BME280;51448;51.660;5.824;2023-08-30T10:59:28;100375.88;;;18.44;100.00
61119;BME280;51448;51.660;5.824;2023-08-30T11:02:01;100380.13;;;18.59;100.00
61119;BME280;51448;51.660;5.824;2023-08-30T11:04:31;100378.56;;;18.82;100.00
61119;BME280;51448;51.660;5.824;2023-08-30T11:06:59;100373.13;;;18.97;100.00
61119;BME280;51448;51.660;5.824;2023-08-30T11:09:26;100372.47;;;19.06;100.00
61119;BME280;51448;51.660;5.824;2023-08-30T11:11:54;100370.19;;;19.25;100.00
61119;BME280;51448;51.660;5.824;2023-08-30T11:14:22;100371.22;;;19.36;100.00
61119;BME280;51448;51.660;5.824;2023-08-30T11:16:49;100370.59;;;19.45;100.00
61119;BME280;51448;51.660;5.824;2023-08-30T11:19:17;100356.13;;;19.60;100.00
61119;BME280;51448;51.660;5.824;2023-08-30T11:21:45;100367.91;;;19.82;100.00
61119;BME280;51448;51.660;5.824;2023-08-30T11:24:14;100365.88;;;19.85;100.00
61119;BME280;51448;51.660;5.824;2023-08-30T11:26:42;100362.69;;;19.80;100.00
61119;BME280;51448;51.660;5.824;2023-08-30T11:29:10;100362.72;;;19.67;100.00
61119;BME280;51448;51.660;5.824;2023-08-30T11:31:38;100362.03;;;19.53;100.00
61119;BME280;51448;51.660;5.824;2023-08-30T11:34:05;100358.78;;;19.36;100.00
61119;BME280;51448;51.660;5.824;2023-08-30T11:36:35;100367.97;;;19.19;100.00
61119;BME280;51448;51.660;5.824;2023-08-30T11:39:04;100372.69;;;19.03;100.00
61119;BME280;51448;51.660;5.824;2023-08-30T11:41:31;100384.22;;;18.90;100.00
61119;BME280;51448;51.660;5.824;2023-08-30T11:43:59;100385.03;;;18.78;100.00
61119;BME280;51448;51.660;5.824;2023-08-30T11:46:29;100377.69;;;18.69;100.00
61119;BME280;51448;51.660;5.824;2023-08-30T11:48:57;100384.63;;;18.59;100.00
61119;BME280;51448;51.660;5.824;2023-08-30T11:51:25;100382.69;;;18.48;100.00
61119;BME280;51448;51.660;5.824;2023-08-30T11:53:53;100382.22;;;18.41;100.00
61119;BME280;51448;51.660;5.824;2023-08-30T11:56:21;100387.88;;;18.37;100.00
61119;BME280;51448;51.660;5.824;2023-08-30T11:58:50;100389.47;;;18.39;100.00
61119;BME280;51448;51.660;5.824;2023-08-30T12:01:19;100392.19;;;18.52;100.00
61119;BME280;51448;51.660;5.824;2023-08-30T12:03:46;100389.63;;;18.63;100.00
61119;BME280;51448;51.660;5.824;2023-08-30T12:06:18;100377.81;;;18.80;100.00
61119;BME280;51448;51.660;5.824;2023-08-30T12:08:45;100388.50;;;18.93;100.00
61119;BME280;51448;51.660;5.824;2023-08-30T12:11:19;100376.00;;;18.94;100.00
61119;BME280;51448;51.660;5.824;2023-08-30T12:13:48;100378.75;;;19.05;100.00
61119;BME280;51448;51.660;5.824;2023-08-30T12:16:18;100382.69;;;19.25;100.00
61119;BME280;51448;51.660;5.824;2023-08-30T12:18:45;100382.38;;;19.54;99.00
61119;BME280;51448;51.660;5.824;2023-08-30T12:21:13;100375.63;;;19.74;98.38
61119;BME280;51448;51.660;5.824;2023-08-30T12:23:42;100381.38;;;19.80;97.69
61119;BME280;51448;51.660;5.824;2023-08-30T12:26:10;100390.44;;;19.78;97.49
61119;BME280;51448;51.660;5.824;2023-08-30T12:28:40;100393.56;;;19.72;95.11
61119;BME280;51448;51.660;5.824;2023-08-30T12:31:09;100394.53;;;19.70;94.49
61119;BME280;51448;51.660;5.824;2023-08-30T12:33:37;100391.44;;;19.64;94.65
61119;BME280;51448;51.660;5.824;2023-08-30T12:36:07;100396.25;;;19.72;95.21
61119;BME280;51448;51.660;5.824;2023-08-30T12:38:34;100398.50;;;19.89;93.54
61119;BME280;51448;51.660;5.824;2023-08-30T12:41:02;100404.00;;;19.99;92.98
61119;BME280;51448;51.660;5.824;2023-08-30T12:43:30;100405.03;;;20.09;92.52
61119;BME280;51448;51.660;5.824;2023-08-30T12:45:57;100417.56;;;20.20;91.51
61119;BME280;51448;51.660;5.824;2023-08-30T12:48:26;100411.03;;;20.24;90.49
61119;BME280;51448;51.660;5.824;2023-08-30T12:50:54;100416.72;;;20.19;88.73
61119;BME280;51448;51.660;5.824;2023-08-30T12:53:21;100413.31;;;20.17;88.72
61119;BME280;51448;51.660;5.824;2023-08-30T12:55:49;100410.53;;;20.19;89.15
61119;BME280;51448;51.660;5.824;2023-08-30T12:58:17;100403.44;;;20.30;88.55
61119;BME280;51448;51.660;5.824;2023-08-30T13:00:44;100403.47;;;20.42;87.10